createdAt,value
2019-04-16T00:02:27.727Z,89.60
2019-04-16T00:04:56.761Z,89.80
2019-04-16T00:07:40.984Z,89.60
2019-04-16T00:10:18.395Z,89.60
2019-04-16T00:13:01.706Z,89.60
2019-04-16T00:15:27.802Z,89.90
2019-04-16T00:17:53.917Z,90.00
2019-04-16T00:20:20.147Z,90.10
2019-04-16T00:22:57.459Z,90.10
2019-04-16T00:25:23.577Z,90.00
2019-04-16T00:27:49.861Z,89.80
2019-04-16T00:30:16.857Z,90.10
2019-04-16T00:32:42.935Z,90.20
2019-04-16T00:35:09.029Z,90.20
2019-04-16T00:37:35.105Z,90.30
2019-04-16T00:40:01.423Z,90.40
2019-04-16T00:42:27.595Z,90.50
2019-04-16T00:44:53.854Z,90.70
2019-04-16T00:47:20.270Z,90.50
2019-04-16T00:49:46.505Z,90.50
2019-04-16T00:52:12.679Z,90.60
2019-04-16T00:54:39.341Z,90.50
2019-04-16T00:57:06.784Z,90.70
2019-04-16T00:59:32.861Z,90.60
2019-04-16T01:01:58.989Z,90.60
2019-04-16T01:04:25.073Z,90.60
2019-04-16T01:06:51.160Z,91.10
2019-04-16T01:09:17.235Z,90.90
2019-04-16T01:11:45.967Z,90.90
2019-04-16T01:14:11.347Z,91.10
2019-04-16T01:16:37.475Z,91.30
2019-04-16T01:19:03.748Z,91.20
2019-04-16T01:21:29.998Z,91.10
2019-04-16T01:23:56.070Z,91.00
2019-04-16T01:26:24.213Z,91.00
2019-04-16T01:28:52.105Z,91.10
2019-04-16T01:31:28.938Z,91.20
2019-04-16T01:34:06.109Z,91.20
2019-04-16T01:36:37.212Z,91.20
2019-04-16T01:39:16.259Z,91.40
2019-04-16T01:41:35.318Z,91.60
2019-04-16T01:44:01.427Z,91.60
2019-04-16T01:46:27.530Z,91.70
2019-04-16T01:48:53.604Z,91.90
2019-04-16T01:51:19.746Z,92.30
2019-04-16T01:53:45.862Z,92.70
2019-04-16T01:56:12.064Z,92.90
2019-04-16T01:58:38.244Z,93.40
2019-04-16T02:01:04.525Z,93.60
2019-04-16T02:03:30.728Z,93.80
2019-04-16T02:05:56.854Z,93.90
2019-04-16T02:08:23.051Z,93.80
2019-04-16T02:10:49.484Z,93.90
2019-04-16T02:13:15.966Z,94.30
2019-04-16T02:15:42.298Z,94.40
2019-04-16T02:18:08.528Z,94.30
2019-04-16T02:20:38.454Z,93.90
2019-04-16T02:23:03.098Z,94.30
2019-04-16T02:25:29.435Z,94.10
2019-04-16T02:27:57.087Z,94.60
2019-04-16T02:30:23.582Z,94.70
2019-04-16T02:32:49.760Z,95.00
2019-04-16T02:35:16.029Z,95.00
2019-04-16T02:37:42.215Z,95.30
2019-04-16T02:40:08.891Z,94.60
2019-04-16T02:42:36.917Z,94.40
2019-04-16T02:45:04.112Z,94.70
2019-04-16T02:47:30.194Z,94.90
2019-04-16T02:49:57.963Z,94.30
2019-04-16T02:52:50.402Z,94.70
2019-04-16T02:55:22.620Z,94.30
2019-04-16T02:58:00.014Z,94.50
2019-04-16T03:00:38.543Z,94.50
2019-04-16T03:03:18.623Z,95.20
2019-04-16T03:05:46.837Z,95.40
2019-04-16T03:08:13.033Z,95.40
2019-04-16T03:10:41.859Z,95.70
2019-04-16T03:13:07.302Z,96.10
2019-04-16T03:15:44.171Z,96.40
2019-04-16T03:18:14.753Z,96.80
2019-04-16T03:20:39.856Z,97.10
2019-04-16T03:23:06.774Z,97.50
2019-04-16T03:25:33.305Z,97.40
2019-04-16T03:27:59.532Z,97.60
2019-04-16T03:30:25.622Z,97.80
2019-04-16T03:32:51.819Z,98.10
2019-04-16T03:35:18.364Z,98.60
2019-04-16T03:37:44.583Z,98.80
2019-04-16T03:40:17.768Z,98.70
2019-04-16T03:42:39.048Z,98.60
2019-04-16T03:45:09.196Z,98.70
2019-04-16T03:47:34.063Z,99.10
2019-04-16T03:50:00.245Z,99.50
2019-04-16T03:52:26.428Z,99.00
2019-04-16T03:54:54.011Z,99.00
2019-04-16T03:57:20.542Z,99.20
2019-04-16T03:59:46.787Z,99.40
2019-04-16T04:02:15.278Z,99.30
2019-04-16T04:04:40.998Z,99.40
2019-04-16T04:07:08.732Z,99.60
2019-04-16T04:09:35.231Z,99.90
2019-04-16T04:12:01.366Z,99.90
2019-04-16T04:14:27.447Z,99.90
2019-04-16T04:16:53.556Z,99.90
2019-04-16T04:19:19.679Z,99.90
2019-04-16T04:21:45.775Z,99.90
2019-04-16T04:24:11.923Z,99.90
2019-04-16T04:26:41.089Z,99.90
2019-04-16T04:29:06.441Z,99.90
2019-04-16T04:31:33.087Z,99.90
2019-04-16T04:33:59.362Z,99.90
2019-04-16T04:36:27.193Z,99.90
2019-04-16T04:38:53.467Z,99.90
2019-04-16T04:41:22.914Z,99.90
2019-04-16T04:43:47.948Z,99.90
2019-04-16T04:46:15.307Z,99.90
2019-04-16T04:48:41.911Z,99.90
2019-04-16T04:51:08.784Z,99.90
2019-04-16T04:53:35.314Z,99.90
2019-04-16T04:56:01.527Z,99.90
2019-04-16T04:58:27.653Z,99.90
2019-04-16T05:00:53.733Z,99.90
2019-04-16T05:03:24.559Z,99.90
2019-04-16T05:05:58.563Z,99.90
2019-04-16T05:08:24.754Z,99.90
2019-04-16T05:10:58.942Z,99.90
2019-04-16T05:13:23.923Z,99.90
2019-04-16T05:15:47.015Z,99.90
2019-04-16T05:18:13.117Z,99.90
2019-04-16T05:20:39.259Z,99.90
2019-04-16T05:23:05.369Z,99.90
2019-04-16T05:25:34.131Z,99.90
2019-04-16T05:27:59.476Z,99.90
2019-04-16T05:30:25.565Z,99.90
2019-04-16T05:32:51.707Z,99.90
2019-04-16T05:35:17.894Z,99.90
2019-04-16T05:37:44.117Z,99.90
2019-04-16T05:40:10.856Z,99.90
2019-04-16T05:42:37.030Z,99.90
2019-04-16T05:45:05.662Z,99.90
2019-04-16T05:47:32.663Z,99.90
2019-04-16T05:49:58.900Z,99.90
2019-04-16T05:52:25.160Z,99.90
2019-04-16T05:54:56.085Z,99.90
2019-04-16T05:57:27.633Z,99.90
2019-04-16T05:59:53.900Z,99.90
2019-04-16T06:02:37.351Z,99.90
2019-04-16T06:05:05.034Z,99.90
2019-04-16T06:07:31.136Z,99.90
2019-04-16T06:09:57.217Z,99.90
2019-04-16T06:12:25.258Z,99.90
2019-04-16T06:14:59.482Z,99.90
2019-04-16T06:17:31.797Z,99.90
2019-04-16T06:20:00.368Z,99.90
2019-04-16T06:22:30.075Z,99.90
2019-04-16T06:24:58.287Z,99.90
2019-04-16T06:27:29.073Z,99.90
2019-04-16T06:30:14.170Z,99.90
2019-04-16T06:32:48.039Z,99.90
2019-04-16T06:35:24.848Z,99.90
2019-04-16T06:38:04.901Z,99.90
2019-04-16T06:40:38.722Z,99.90
2019-04-16T06:43:09.246Z,99.90
2019-04-16T06:45:40.263Z,99.90
2019-04-16T06:48:12.894Z,99.90
2019-04-16T06:50:47.222Z,99.90
2019-04-16T06:53:15.254Z,99.90
2019-04-16T06:55:46.552Z,99.90
2019-04-16T06:58:16.707Z,99.60
2019-04-16T07:00:47.543Z,99.60
2019-04-16T07:03:15.631Z,99.50
2019-04-16T07:05:46.398Z,99.00
2019-04-16T07:08:38.170Z,99.50
2019-04-16T07:11:01.335Z,99.60
2019-04-16T07:13:27.476Z,98.80
2019-04-16T07:15:56.763Z,98.90
2019-04-16T07:18:21.607Z,98.80
2019-04-16T07:20:47.810Z,98.20
2019-04-16T07:23:13.897Z,99.30
2019-04-16T07:25:43.136Z,99.00
2019-04-16T07:28:27.306Z,98.90
2019-04-16T07:31:14.842Z,98.00
2019-04-16T07:33:48.035Z,96.80
2019-04-16T07:36:24.214Z,97.20
2019-04-16T07:38:51.860Z,97.10
2019-04-16T07:41:19.856Z,96.10
2019-04-16T07:44:08.166Z,95.10
2019-04-16T07:46:48.261Z,95.70
2019-04-16T07:49:28.286Z,95.40
2019-04-16T07:52:13.127Z,94.30
2019-04-16T07:54:47.010Z,93.30
2019-04-16T07:57:13.277Z,93.20
2019-04-16T07:59:43.657Z,93.00
2019-04-16T08:02:10.132Z,93.20
2019-04-16T08:04:36.481Z,93.60
2019-04-16T08:07:02.853Z,94.30
2019-04-16T08:09:29.935Z,93.50
2019-04-16T08:11:56.478Z,92.70
2019-04-16T08:14:22.553Z,93.00
2019-04-16T08:16:48.760Z,93.50
2019-04-16T08:19:16.117Z,91.80
2019-04-16T08:21:44.343Z,92.40
2019-04-16T08:24:24.355Z,91.30
2019-04-16T08:26:49.637Z,91.40
2019-04-16T08:29:15.824Z,92.00
2019-04-16T08:31:44.902Z,91.90
2019-04-16T08:34:14.311Z,90.90
2019-04-16T08:36:40.541Z,90.80
2019-04-16T08:39:08.158Z,91.10
2019-04-16T08:41:34.347Z,91.00
2019-04-16T08:44:03.804Z,90.80
2019-04-16T08:46:28.560Z,91.00
2019-04-16T08:48:54.714Z,90.60
2019-04-16T08:51:30.134Z,89.20
2019-04-16T08:53:48.975Z,90.60
2019-04-16T08:56:15.241Z,90.70
2019-04-16T08:58:41.415Z,90.50
2019-04-16T09:01:09.133Z,90.40
2019-04-16T09:03:35.385Z,90.00
2019-04-16T09:06:03.947Z,88.70
2019-04-16T09:08:37.475Z,87.90
2019-04-16T09:11:04.545Z,90.10
2019-04-16T09:13:32.985Z,89.60
2019-04-16T09:15:59.437Z,88.60
2019-04-16T09:18:33.471Z,88.10
2019-04-16T09:20:59.632Z,87.70
2019-04-16T09:23:26.743Z,89.80
2019-04-16T09:25:55.074Z,86.10
2019-04-16T09:28:26.451Z,86.60
2019-04-16T09:31:11.519Z,87.00
2019-04-16T09:33:51.709Z,85.00
2019-04-16T09:36:25.472Z,88.50
2019-04-16T09:38:56.242Z,86.00
2019-04-16T09:41:24.342Z,84.30
2019-04-16T09:43:57.192Z,82.90
2019-04-16T09:46:48.750Z,84.00
2019-04-16T09:48:51.446Z,83.80
2019-04-16T09:51:20.780Z,83.40
2019-04-16T09:53:45.564Z,82.50
2019-04-16T09:56:29.052Z,81.20
2019-04-16T09:58:57.853Z,82.50
2019-04-16T10:01:26.036Z,82.40
2019-04-16T10:03:53.981Z,81.50
2019-04-16T10:06:20.205Z,80.90
2019-04-16T10:08:46.411Z,79.40
2019-04-16T10:11:12.720Z,81.00
2019-04-16T10:13:39.038Z,81.20
2019-04-16T10:16:05.399Z,78.80
2019-04-16T10:18:34.411Z,79.40
2019-04-16T10:20:59.540Z,80.80
2019-04-16T10:23:36.295Z,80.80
2019-04-16T10:26:03.064Z,79.30
2019-04-16T10:28:34.012Z,80.20
2019-04-16T10:30:59.192Z,76.60
2019-04-16T10:33:25.318Z,76.80
2019-04-16T10:35:51.497Z,76.60
2019-04-16T10:38:25.405Z,76.60
2019-04-16T10:40:56.785Z,76.50
2019-04-16T10:43:44.906Z,75.60
2019-04-16T10:46:18.672Z,76.60
2019-04-16T10:49:03.376Z,78.50
2019-04-16T10:51:40.456Z,75.60
2019-04-16T10:54:08.477Z,74.70
2019-04-16T10:56:48.558Z,73.70
2019-04-16T10:59:33.499Z,73.40
2019-04-16T11:02:10.848Z,75.80
2019-04-16T11:04:43.290Z,74.10
2019-04-16T11:07:14.882Z,75.30
2019-04-16T11:09:41.053Z,75.50
2019-04-16T11:12:07.313Z,75.80
2019-04-16T11:14:33.644Z,72.40
2019-04-16T11:17:00.339Z,72.10
2019-04-16T11:19:26.417Z,72.00
2019-04-16T11:21:52.591Z,71.70
2019-04-16T11:24:20.592Z,72.00
2019-04-16T11:26:46.814Z,72.40
2019-04-16T11:29:12.924Z,74.50
2019-04-16T11:31:39.182Z,73.00
2019-04-16T11:34:06.519Z,72.60
2019-04-16T11:36:33.686Z,72.50
2019-04-16T11:38:59.927Z,73.10
2019-04-16T11:41:26.134Z,71.00
2019-04-16T11:43:52.230Z,71.40
2019-04-16T11:46:18.764Z,71.40
2019-04-16T11:48:45.054Z,70.90
2019-04-16T11:51:11.240Z,74.10
2019-04-16T11:53:37.575Z,70.80
2019-04-16T11:56:04.053Z,71.70
2019-04-16T11:58:35.166Z,72.00
2019-04-16T12:01:22.910Z,70.20
2019-04-16T12:03:55.928Z,70.20
2019-04-16T12:06:29.039Z,69.40
2019-04-16T12:09:15.627Z,72.80
2019-04-16T12:11:58.783Z,71.20
2019-04-16T12:14:32.334Z,70.30
2019-04-16T12:16:59.872Z,71.30
2019-04-16T12:19:44.967Z,71.10
2019-04-16T12:22:13.372Z,71.00
2019-04-16T12:24:44.190Z,71.10
2019-04-16T12:27:15.015Z,70.60
2019-04-16T12:29:59.893Z,72.70
2019-04-16T12:32:27.997Z,71.40
2019-04-16T12:34:56.122Z,70.80
2019-04-16T12:37:30.037Z,68.40
2019-04-16T12:40:01.078Z,70.30
2019-04-16T12:42:42.235Z,68.80
2019-04-16T12:45:09.621Z,69.20
2019-04-16T12:47:43.543Z,68.30
2019-04-16T12:50:16.966Z,69.30
2019-04-16T12:52:44.428Z,69.00
2019-04-16T12:55:31.792Z,69.10
2019-04-16T12:58:19.096Z,66.00
2019-04-16T13:00:47.227Z,66.20
2019-04-16T13:03:24.280Z,68.00
2019-04-16T13:06:01.373Z,68.00
2019-04-16T13:08:33.885Z,66.10
2019-04-16T13:11:07.764Z,67.90
2019-04-16T13:13:37.865Z,66.60
2019-04-16T13:16:21.117Z,66.30
2019-04-16T13:19:07.636Z,64.70
2019-04-16T13:21:35.981Z,65.50
2019-04-16T13:24:22.434Z,72.00
2019-04-16T13:26:53.060Z,67.20
2019-04-16T13:29:19.556Z,67.30
2019-04-16T13:31:45.843Z,67.00
2019-04-16T13:34:12.054Z,67.40
2019-04-16T13:36:38.142Z,67.80
2019-04-16T13:39:08.772Z,70.10
2019-04-16T13:41:34.902Z,71.50
2019-04-16T13:44:09.261Z,70.80
2019-04-16T13:46:34.841Z,66.30
2019-04-16T13:49:03.136Z,68.80
2019-04-16T13:51:34.122Z,67.80
2019-04-16T13:54:02.356Z,65.80
2019-04-16T13:56:39.484Z,68.10
2019-04-16T13:59:22.603Z,67.10
2019-04-16T14:01:58.995Z,66.70
2019-04-16T14:04:24.460Z,64.70
2019-04-16T14:06:50.704Z,65.00
2019-04-16T14:09:16.944Z,65.70
2019-04-16T14:11:43.114Z,64.90
2019-04-16T14:14:09.302Z,65.20
2019-04-16T14:16:35.534Z,66.10
2019-04-16T14:19:02.204Z,64.30
2019-04-16T14:21:29.776Z,63.70
2019-04-16T14:23:56.103Z,66.10
2019-04-16T14:26:22.232Z,64.60
2019-04-16T14:28:52.231Z,63.20
2019-04-16T14:31:17.902Z,63.70
2019-04-16T14:33:58.142Z,64.60
2019-04-16T14:36:24.350Z,66.40
2019-04-16T14:38:52.494Z,64.10
2019-04-16T14:41:18.670Z,64.40
2019-04-16T14:43:46.724Z,63.80
2019-04-16T14:46:12.812Z,67.00
2019-04-16T14:48:42.718Z,64.30
2019-04-16T14:51:07.445Z,65.40
2019-04-16T14:53:38.592Z,65.40
2019-04-16T14:56:21.606Z,63.60
2019-04-16T14:58:58.733Z,63.30
2019-04-16T15:01:26.810Z,63.10
2019-04-16T15:03:54.802Z,64.40
2019-04-16T15:06:31.651Z,64.60
2019-04-16T15:09:16.373Z,65.30
2019-04-16T15:12:01.819Z,64.50
2019-04-16T15:14:32.647Z,64.40
2019-04-16T15:17:15.865Z,64.40
2019-04-16T15:19:52.872Z,65.40
2019-04-16T15:22:29.518Z,66.50
2019-04-16T15:25:10.519Z,66.10
2019-04-16T15:27:44.561Z,64.50
2019-04-16T15:30:18.928Z,65.20
2019-04-16T15:32:50.449Z,65.80
2019-04-16T15:35:21.457Z,65.90
2019-04-16T15:38:04.803Z,66.40
2019-04-16T15:40:33.339Z,65.70
2019-04-16T15:43:19.525Z,67.60
2019-04-16T15:46:13.035Z,65.70
2019-04-16T15:48:53.202Z,66.30
2019-04-16T15:51:31.623Z,67.20
2019-04-16T15:54:05.979Z,65.70
2019-04-16T15:56:34.299Z,66.40
2019-04-16T15:59:05.140Z,67.40
2019-04-16T16:01:51.723Z,66.60
2019-04-16T16:04:22.612Z,67.80
2019-04-16T16:06:53.210Z,67.10
2019-04-16T16:09:23.558Z,67.00
2019-04-16T16:12:02.599Z,68.60
2019-04-16T16:14:34.599Z,68.30
2019-04-16T16:17:00.534Z,69.00
2019-04-16T16:19:26.996Z,70.00
2019-04-16T16:21:53.101Z,70.30
2019-04-16T16:24:19.245Z,70.40
2019-04-16T16:26:45.308Z,70.60
2019-04-16T16:29:11.441Z,70.60
2019-04-16T16:31:37.576Z,71.30
2019-04-16T16:34:03.994Z,71.10
2019-04-16T16:36:30.145Z,70.40
2019-04-16T16:38:56.315Z,70.90
2019-04-16T16:41:22.407Z,69.30
2019-04-16T16:43:48.528Z,68.80
2019-04-16T16:46:32.933Z,67.80
2019-04-16T16:48:59.045Z,68.40
2019-04-16T16:51:25.257Z,69.60
2019-04-16T16:54:02.606Z,70.10
2019-04-16T16:56:30.587Z,70.60
2019-04-16T16:59:04.632Z,71.60
2019-04-16T17:01:35.672Z,73.20
2019-04-16T17:04:03.924Z,72.70
2019-04-16T17:06:30.781Z,73.20
2019-04-16T17:08:56.994Z,73.00
2019-04-16T17:11:23.118Z,72.60
2019-04-16T17:13:49.340Z,73.30
2019-04-16T17:16:15.727Z,73.40
2019-04-16T17:18:45.285Z,73.80
2019-04-16T17:21:10.139Z,74.10
2019-04-16T17:23:36.304Z,75.20
2019-04-16T17:26:02.826Z,74.80
2019-04-16T17:28:28.911Z,75.10
2019-04-16T17:30:55.386Z,75.30
2019-04-16T17:33:21.818Z,75.30
2019-04-16T17:35:47.929Z,76.90
2019-04-16T17:38:14.074Z,78.30
2019-04-16T17:40:57.961Z,76.50
2019-04-16T17:43:38.165Z,77.70
2019-04-16T17:46:06.291Z,76.10
2019-04-16T17:48:46.465Z,76.80
2019-04-16T17:51:17.257Z,76.90
2019-04-16T17:53:45.463Z,76.10
2019-04-16T17:56:29.992Z,77.20
2019-04-16T17:59:01.245Z,80.10
2019-04-16T18:01:45.951Z,77.10
2019-04-16T18:04:16.848Z,76.80
2019-04-16T18:06:57.025Z,78.90
2019-04-16T18:09:25.070Z,77.00
2019-04-16T18:12:08.120Z,78.40
2019-04-16T18:14:52.915Z,77.90
2019-04-16T18:17:26.684Z,78.10
2019-04-16T18:19:59.684Z,79.20
2019-04-16T18:22:30.470Z,78.50
2019-04-16T18:25:01.668Z,76.80
2019-04-16T18:27:32.828Z,77.00
2019-04-16T18:30:07.186Z,76.90
2019-04-16T18:32:38.083Z,77.40
2019-04-16T18:35:09.170Z,78.30
2019-04-16T18:37:37.187Z,78.50
2019-04-16T18:40:10.453Z,77.90
2019-04-16T18:42:55.045Z,77.40
2019-04-16T18:45:39.954Z,77.60
2019-04-16T18:48:26.176Z,77.60
2019-04-16T18:50:52.489Z,78.30
2019-04-16T18:53:18.651Z,79.20
2019-04-16T18:55:44.887Z,79.40
2019-04-16T18:58:11.264Z,79.20
2019-04-16T19:00:39.300Z,79.40
2019-04-16T19:03:05.550Z,80.40
2019-04-16T19:05:31.724Z,79.50
2019-04-16T19:08:01.507Z,79.20
2019-04-16T19:10:28.713Z,80.20
2019-04-16T19:12:57.550Z,79.30
2019-04-16T19:15:35.883Z,78.90
2019-04-16T19:18:19.064Z,79.50
2019-04-16T19:20:41.291Z,79.30
2019-04-16T19:23:12.366Z,78.80
2019-04-16T19:25:51.753Z,79.70
2019-04-16T19:28:31.076Z,78.60
2019-04-16T19:31:10.802Z,78.00
2019-04-16T19:33:41.923Z,78.00
2019-04-16T19:36:15.917Z,78.70
2019-04-16T19:38:50.691Z,78.40
2019-04-16T19:41:30.994Z,78.90
2019-04-16T19:43:58.699Z,78.40
2019-04-16T19:46:28.149Z,78.70
2019-04-16T19:49:08.228Z,78.80
2019-04-16T19:51:49.088Z,78.80
2019-04-16T19:54:20.287Z,78.50
2019-04-16T19:56:58.432Z,78.60
2019-04-16T19:59:26.274Z,78.60
2019-04-16T20:01:55.807Z,78.90
2019-04-16T20:04:23.500Z,78.90
2019-04-16T20:06:56.956Z,79.10
2019-04-16T20:09:21.770Z,79.90
2019-04-16T20:11:48.482Z,80.70
2019-04-16T20:14:15.444Z,79.60
2019-04-16T20:16:42.708Z,79.80
2019-04-16T20:19:09.752Z,79.60
2019-04-16T20:21:37.863Z,79.50
2019-04-16T20:24:12.918Z,79.90
2019-04-16T20:26:51.965Z,79.80
2019-04-16T20:29:18.794Z,79.80
2019-04-16T20:31:45.370Z,81.80
2019-04-16T20:34:13.319Z,80.00
2019-04-16T20:36:40.076Z,80.40
2019-04-16T20:39:09.381Z,80.80
2019-04-16T20:41:38.165Z,80.30
2019-04-16T20:44:09.106Z,80.90
2019-04-16T20:46:37.023Z,80.10
2019-04-16T20:49:09.085Z,80.00
2019-04-16T20:51:31.337Z,80.00
2019-04-16T20:53:57.565Z,80.10
2019-04-16T20:56:23.687Z,80.10
2019-04-16T20:58:49.843Z,80.00
2019-04-16T21:01:32.241Z,80.40
2019-04-16T21:03:54.053Z,80.50
2019-04-16T21:06:23.594Z,80.60
2019-04-16T21:08:50.416Z,80.50
2019-04-16T21:11:16.798Z,80.70
2019-04-16T21:13:43.355Z,80.30
2019-04-16T21:16:09.484Z,79.80
2019-04-16T21:18:35.671Z,80.20
2019-04-16T21:21:01.759Z,79.60
2019-04-16T21:23:27.891Z,79.70
2019-04-16T21:25:53.981Z,79.90
2019-04-16T21:28:21.973Z,80.00
2019-04-16T21:30:50.073Z,79.80
2019-04-16T21:33:21.302Z,80.00
2019-04-16T21:35:49.435Z,79.80
2019-04-16T21:38:17.460Z,79.70
2019-04-16T21:40:43.638Z,79.70
2019-04-16T21:43:10.019Z,80.00
2019-04-16T21:45:36.243Z,79.40
2019-04-16T21:48:02.425Z,79.80
2019-04-16T21:50:28.648Z,79.90
2019-04-16T21:52:55.691Z,79.50
2019-04-16T21:55:22.859Z,79.80
2019-04-16T21:57:48.974Z,79.50
2019-04-16T22:00:27.819Z,79.40
2019-04-16T22:02:55.278Z,79.50
2019-04-16T22:05:21.595Z,79.80
2019-04-16T22:07:47.770Z,79.70
2019-04-16T22:10:13.905Z,79.30
2019-04-16T22:12:40.121Z,79.10
2019-04-16T22:15:06.421Z,80.00
2019-04-16T22:17:35.451Z,79.30
2019-04-16T22:20:03.742Z,79.40
2019-04-16T22:22:28.572Z,79.30
2019-04-16T22:24:55.675Z,80.20
2019-04-16T22:27:22.334Z,79.50
2019-04-16T22:29:48.411Z,79.70
2019-04-16T22:32:14.549Z,79.30
2019-04-16T22:34:40.749Z,79.70
2019-04-16T22:37:06.993Z,79.40
2019-04-16T22:39:51.186Z,79.50
2019-04-16T22:42:29.659Z,78.80
2019-04-16T22:45:01.286Z,79.50
2019-04-16T22:47:29.276Z,79.50
2019-04-16T22:50:13.067Z,79.50
2019-04-16T22:52:23.435Z,79.70
2019-04-16T22:54:52.134Z,79.10
2019-04-16T22:57:17.966Z,79.50
2019-04-16T22:59:44.129Z,79.50
2019-04-16T23:02:13.762Z,79.30
2019-04-16T23:04:40.095Z,79.70
2019-04-16T23:07:07.144Z,79.70
2019-04-16T23:09:34.296Z,79.50
2019-04-16T23:12:00.782Z,79.50
2019-04-16T23:14:26.980Z,79.50
2019-04-16T23:16:53.112Z,79.30
2019-04-16T23:19:20.512Z,79.30
2019-04-16T23:21:47.249Z,79.60
2019-04-16T23:24:13.312Z,79.80
2019-04-16T23:26:39.455Z,80.10
2019-04-16T23:29:05.754Z,80.20
2019-04-16T23:31:31.912Z,80.50
2019-04-16T23:33:57.981Z,80.20
2019-04-16T23:36:24.113Z,80.30
2019-04-16T23:38:50.328Z,80.10
2019-04-16T23:41:16.929Z,80.10
2019-04-16T23:43:54.414Z,80.10
2019-04-16T23:46:25.355Z,79.80
2019-04-16T23:49:05.414Z,80.30
2019-04-16T23:51:36.386Z,80.20
2019-04-16T23:54:12.009Z,80.70
2019-04-16T23:56:40.194Z,80.20
2019-04-16T23:59:08.222Z,80.00
